createdAt,value
2019-05-23T00:01:57.619Z,4.50
2019-05-23T00:04:31.307Z,4.40
2019-05-23T00:07:02.659Z,4.00
2019-05-23T00:09:32.811Z,4.12
2019-05-23T00:12:06.301Z,4.62
2019-05-23T00:14:39.493Z,3.50
2019-05-23T00:17:12.497Z,3.30
2019-05-23T00:19:42.599Z,4.67
2019-05-23T00:22:11.911Z,4.70
2019-05-23T00:24:42.682Z,4.90
2019-05-23T00:27:12.927Z,4.28
2019-05-23T00:29:48.273Z,3.92
2019-05-23T00:32:28.512Z,3.30
2019-05-23T00:34:57.512Z,3.72
2019-05-23T00:37:30.404Z,3.80
2019-05-23T00:39:59.559Z,3.87
2019-05-23T00:42:29.971Z,4.20
2019-05-23T00:44:59.181Z,3.80
2019-05-23T00:47:28.446Z,4.00
2019-05-23T00:49:56.945Z,4.08
2019-05-23T00:52:26.123Z,3.85
2019-05-23T00:54:56.104Z,4.12
2019-05-23T00:57:27.838Z,4.25
2019-05-23T00:59:58.037Z,3.90
2019-05-23T01:02:27.992Z,3.70
2019-05-23T01:04:56.596Z,3.80
2019-05-23T01:07:26.076Z,4.00
2019-05-23T01:09:54.980Z,3.75
2019-05-23T01:12:25.190Z,4.10
2019-05-23T01:14:54.532Z,4.10
2019-05-23T01:17:27.174Z,4.25
2019-05-23T01:19:57.963Z,4.37
2019-05-23T01:22:26.985Z,4.30
2019-05-23T01:24:56.328Z,4.30
2019-05-23T01:27:25.231Z,4.00
2019-05-23T01:29:56.716Z,3.67
2019-05-23T01:32:27.489Z,4.00
2019-05-23T01:34:57.225Z,3.80
2019-05-23T01:37:28.431Z,3.80
2019-05-23T01:39:57.454Z,3.75
2019-05-23T01:42:28.665Z,4.00
2019-05-23T01:44:59.567Z,3.83
2019-05-23T01:47:28.606Z,3.83
2019-05-23T01:49:58.279Z,3.70
2019-05-23T01:52:27.673Z,3.62
2019-05-23T01:54:56.441Z,3.98
2019-05-23T01:57:25.454Z,3.90
2019-05-23T02:00:08.883Z,3.70
2019-05-23T02:02:27.458Z,3.85
2019-05-23T02:04:56.375Z,3.55
2019-05-23T02:07:24.981Z,3.90
2019-05-23T02:09:53.747Z,3.47
2019-05-23T02:12:23.090Z,3.40
2019-05-23T02:14:52.262Z,3.27
2019-05-23T02:17:21.667Z,3.72
2019-05-23T02:19:51.851Z,2.60
2019-05-23T02:22:20.460Z,2.75
2019-05-23T02:24:48.916Z,3.47
2019-05-23T02:27:19.227Z,3.40
2019-05-23T02:29:47.896Z,3.30
2019-05-23T02:32:18.399Z,2.90
2019-05-23T02:34:47.677Z,2.65
2019-05-23T02:37:18.059Z,2.87
2019-05-23T02:40:06.596Z,2.70
2019-05-23T02:42:37.174Z,2.95
2019-05-23T02:45:09.599Z,3.00
2019-05-23T02:47:39.941Z,2.67
2019-05-23T02:50:13.255Z,2.95
2019-05-23T02:52:46.532Z,2.87
2019-05-23T02:55:18.900Z,3.10
2019-05-23T02:57:48.517Z,3.20
2019-05-23T03:00:27.363Z,3.80
2019-05-23T03:03:00.354Z,3.20
2019-05-23T03:05:29.050Z,3.22
2019-05-23T03:07:59.437Z,3.10
2019-05-23T03:10:32.593Z,3.10
2019-05-23T03:13:02.163Z,3.00
2019-05-23T03:15:33.263Z,3.60
2019-05-23T03:18:05.021Z,4.10
2019-05-23T03:20:35.321Z,3.20
2019-05-23T03:23:09.655Z,3.55
2019-05-23T03:25:41.538Z,3.50
2019-05-23T03:28:12.677Z,3.10
2019-05-23T03:30:52.013Z,3.83
2019-05-23T03:33:21.017Z,3.70
2019-05-23T03:35:51.476Z,4.15
2019-05-23T03:38:21.279Z,3.40
2019-05-23T03:40:50.183Z,3.40
2019-05-23T03:43:19.245Z,3.65
2019-05-23T03:45:55.934Z,4.05
2019-05-23T03:48:25.434Z,4.30
2019-05-23T03:50:55.709Z,4.40
2019-05-23T03:53:25.667Z,4.35
2019-05-23T03:55:54.332Z,5.37
2019-05-23T03:58:25.422Z,5.12
2019-05-23T04:00:56.061Z,5.47
2019-05-23T04:03:26.782Z,5.00
2019-05-23T04:05:56.424Z,5.85
2019-05-23T04:08:27.075Z,5.08
2019-05-23T04:10:56.283Z,5.00
2019-05-23T04:13:25.602Z,5.03
2019-05-23T04:15:54.294Z,5.00
2019-05-23T04:18:24.055Z,5.53
2019-05-23T04:20:52.764Z,4.72
2019-05-23T04:23:22.152Z,4.40
2019-05-23T04:25:51.105Z,4.00
2019-05-23T04:28:20.736Z,4.95
2019-05-23T04:30:50.318Z,4.75
2019-05-23T04:33:19.038Z,5.42
2019-05-23T04:35:48.220Z,6.15
2019-05-23T04:38:17.011Z,6.50
2019-05-23T04:40:46.869Z,11.40
2019-05-23T04:43:15.539Z,8.25
2019-05-23T04:45:44.874Z,23.20
2019-05-23T04:48:13.478Z,13.13
2019-05-23T04:50:42.589Z,6.72
2019-05-23T04:53:11.326Z,5.22
2019-05-23T04:55:40.376Z,5.33
2019-05-23T04:58:10.179Z,4.83
2019-05-23T05:00:39.089Z,5.92
2019-05-23T05:03:08.760Z,5.42
2019-05-23T05:05:37.708Z,5.50
2019-05-23T05:08:06.716Z,4.17
2019-05-23T05:10:36.586Z,5.00
2019-05-23T05:13:05.674Z,4.47
2019-05-23T05:15:34.591Z,5.17
2019-05-23T05:18:03.576Z,7.42
2019-05-23T05:20:33.443Z,7.90
2019-05-23T05:23:02.285Z,5.80
2019-05-23T05:25:31.464Z,5.95
2019-05-23T05:28:00.783Z,5.15
2019-05-23T05:30:29.803Z,4.97
2019-05-23T05:32:59.374Z,5.95
2019-05-23T05:35:30.150Z,5.83
2019-05-23T05:37:58.856Z,6.10
2019-05-23T05:40:28.131Z,6.37
2019-05-23T05:42:56.776Z,9.95
2019-05-23T05:45:25.317Z,10.10
2019-05-23T05:47:54.203Z,9.90
2019-05-23T05:50:23.494Z,10.70
2019-05-23T05:52:52.042Z,9.43
2019-05-23T05:55:21.248Z,7.30
2019-05-23T05:57:49.851Z,7.17
2019-05-23T06:00:27.412Z,7.37
2019-05-23T06:03:04.461Z,8.80
2019-05-23T06:05:41.633Z,10.93
2019-05-23T06:08:11.897Z,10.90
2019-05-23T06:10:40.443Z,10.13
2019-05-23T06:13:09.047Z,9.28
2019-05-23T06:15:37.728Z,10.60
2019-05-23T06:18:06.416Z,10.43
2019-05-23T06:20:36.003Z,10.50
2019-05-23T06:23:05.680Z,9.13
2019-05-23T06:25:35.114Z,8.65
2019-05-23T06:28:04.313Z,9.70
2019-05-23T06:30:34.119Z,8.63
2019-05-23T06:33:19.767Z,9.43
2019-05-23T06:35:33.379Z,8.95
2019-05-23T06:38:02.983Z,7.47
2019-05-23T06:40:33.486Z,6.78
2019-05-23T06:43:02.164Z,7.55
2019-05-23T06:45:31.129Z,7.03
2019-05-23T06:47:59.788Z,9.53
2019-05-23T06:50:30.662Z,7.62
2019-05-23T06:52:59.688Z,9.10
2019-05-23T06:55:29.910Z,9.45
2019-05-23T06:57:58.984Z,8.40
2019-05-23T07:00:28.397Z,8.40
2019-05-23T07:02:57.206Z,6.60
2019-05-23T07:05:28.914Z,5.55
2019-05-23T07:07:57.676Z,6.92
2019-05-23T07:10:26.619Z,7.30
2019-05-23T07:12:55.149Z,7.20
2019-05-23T07:15:25.417Z,7.65
2019-05-23T07:17:54.799Z,8.78
2019-05-23T07:20:23.420Z,7.87
2019-05-23T07:22:52.105Z,6.20
2019-05-23T07:25:22.427Z,7.45
2019-05-23T07:27:51.912Z,5.90
2019-05-23T07:30:25.903Z,5.47
2019-05-23T07:32:54.979Z,6.92
2019-05-23T07:35:24.467Z,6.17
2019-05-23T07:37:53.094Z,6.35
2019-05-23T07:40:23.676Z,6.50
2019-05-23T07:42:52.701Z,5.75
2019-05-23T07:45:35.167Z,4.70
2019-05-23T07:48:03.852Z,5.00
2019-05-23T07:50:33.176Z,4.37
2019-05-23T07:53:03.686Z,5.80
2019-05-23T07:55:34.223Z,4.95
2019-05-23T07:58:02.822Z,4.03
2019-05-23T08:00:33.074Z,4.35
2019-05-23T08:03:04.398Z,3.92
2019-05-23T08:05:34.161Z,3.85
2019-05-23T08:08:04.515Z,5.47
2019-05-23T08:10:34.568Z,4.75
2019-05-23T08:13:03.933Z,4.42
2019-05-23T08:15:34.705Z,4.75
2019-05-23T08:18:04.653Z,4.95
2019-05-23T08:20:33.638Z,4.28
2019-05-23T08:23:02.475Z,5.55
2019-05-23T08:25:31.136Z,5.20
2019-05-23T08:28:00.000Z,4.90
2019-05-23T08:30:28.664Z,5.90
2019-05-23T08:32:57.326Z,4.42
2019-05-23T08:35:26.363Z,3.80
2019-05-23T08:37:55.380Z,4.62
2019-05-23T08:40:25.645Z,5.37
2019-05-23T08:42:54.534Z,3.33
2019-05-23T08:45:23.539Z,4.20
2019-05-23T08:47:52.576Z,5.53
2019-05-23T08:50:22.450Z,5.03
2019-05-23T08:52:51.146Z,5.10
2019-05-23T08:55:27.302Z,4.35
2019-05-23T08:57:56.866Z,3.77
2019-05-23T09:00:27.809Z,4.60
2019-05-23T09:02:59.158Z,4.75
2019-05-23T09:05:32.940Z,4.53
2019-05-23T09:08:01.936Z,4.62
2019-05-23T09:10:31.305Z,4.90
2019-05-23T09:13:00.257Z,4.05
2019-05-23T09:15:28.864Z,3.30
2019-05-23T09:17:57.802Z,4.60
2019-05-23T09:20:26.475Z,4.90
2019-05-23T09:22:55.311Z,3.50
2019-05-23T09:25:23.921Z,5.45
2019-05-23T09:27:53.630Z,5.45
2019-05-23T09:30:26.227Z,4.92
2019-05-23T09:32:55.257Z,4.95
2019-05-23T09:35:24.128Z,5.40
2019-05-23T09:37:53.639Z,5.22
2019-05-23T09:40:22.988Z,4.80
2019-05-23T09:42:53.070Z,5.00
2019-05-23T09:45:23.879Z,4.37
2019-05-23T09:47:52.419Z,4.55
2019-05-23T09:50:22.893Z,4.80
2019-05-23T09:52:51.905Z,5.67
2019-05-23T09:55:21.674Z,4.40
2019-05-23T09:57:50.667Z,5.10
2019-05-23T10:00:21.386Z,4.40
2019-05-23T10:02:50.590Z,5.90
2019-05-23T10:05:19.258Z,6.05
2019-05-23T10:07:48.230Z,4.60
2019-05-23T10:10:17.798Z,4.22
2019-05-23T10:12:46.788Z,5.03
2019-05-23T10:15:17.835Z,5.25
2019-05-23T10:17:46.406Z,4.80
2019-05-23T10:20:15.260Z,5.30
2019-05-23T10:22:43.886Z,5.58
2019-05-23T10:25:12.772Z,5.45
2019-05-23T10:27:42.150Z,4.30
2019-05-23T10:30:13.911Z,4.70
2019-05-23T10:32:42.457Z,3.95
2019-05-23T10:35:13.030Z,4.08
2019-05-23T10:37:41.930Z,4.37
2019-05-23T10:40:10.603Z,4.95
2019-05-23T10:42:39.573Z,5.30
2019-05-23T10:45:10.222Z,4.53
2019-05-23T10:47:38.833Z,4.67
2019-05-23T10:50:10.274Z,3.30
2019-05-23T10:52:39.329Z,4.47
2019-05-23T10:55:11.430Z,5.37
2019-05-23T10:57:40.032Z,5.40
2019-05-23T11:00:11.654Z,4.87
2019-05-23T11:02:40.899Z,4.83
2019-05-23T11:05:13.651Z,5.58
2019-05-23T11:07:41.942Z,5.25
2019-05-23T11:10:11.744Z,4.50
2019-05-23T11:12:41.085Z,4.97
2019-05-23T11:15:10.684Z,5.62
2019-05-23T11:17:40.538Z,5.50
2019-05-23T11:20:11.194Z,3.60
2019-05-23T11:22:40.057Z,4.35
2019-05-23T11:25:10.587Z,4.33
2019-05-23T11:27:39.512Z,4.53
2019-05-23T11:30:13.976Z,5.08
2019-05-23T11:32:42.641Z,5.10
2019-05-23T11:35:11.834Z,5.00
2019-05-23T11:37:42.559Z,4.00
2019-05-23T11:40:11.311Z,4.30
2019-05-23T11:42:40.302Z,4.37
2019-05-23T11:45:09.638Z,3.95
2019-05-23T11:47:38.257Z,3.50
2019-05-23T11:50:08.593Z,5.25
2019-05-23T11:52:37.663Z,3.20
2019-05-23T11:55:08.238Z,4.78
2019-05-23T11:57:38.461Z,6.85
2019-05-23T12:00:10.781Z,5.70
2019-05-23T12:02:47.859Z,5.05
2019-05-23T12:05:20.803Z,3.83
2019-05-23T12:07:49.602Z,3.17
2019-05-23T12:10:18.545Z,4.95
2019-05-23T12:12:47.151Z,4.10
2019-05-23T12:15:18.869Z,4.58
2019-05-23T12:17:47.710Z,4.72
2019-05-23T12:20:17.593Z,5.12
2019-05-23T12:22:46.670Z,3.50
2019-05-23T12:25:22.625Z,3.85
2019-05-23T12:27:46.727Z,3.90
2019-05-23T12:30:16.958Z,4.47
2019-05-23T12:32:45.541Z,3.50
2019-05-23T12:35:14.945Z,3.92
2019-05-23T12:37:43.516Z,4.03
2019-05-23T12:40:12.683Z,3.98
2019-05-23T12:42:41.306Z,4.00
2019-05-23T12:45:10.881Z,4.25
2019-05-23T12:47:57.288Z,4.60
2019-05-23T12:50:33.640Z,4.37
2019-05-23T12:53:04.751Z,4.28
2019-05-23T12:55:33.083Z,4.97
2019-05-23T12:58:01.994Z,2.95
2019-05-23T13:00:32.298Z,3.70
2019-05-23T13:03:01.767Z,5.00
2019-05-23T13:05:31.354Z,4.15
2019-05-23T13:08:00.634Z,4.40
2019-05-23T13:10:29.383Z,4.30
2019-05-23T13:12:58.030Z,4.17
2019-05-23T13:15:27.290Z,4.67
2019-05-23T13:17:55.908Z,4.90
2019-05-23T13:20:25.299Z,5.00
2019-05-23T13:22:54.199Z,4.55
2019-05-23T13:25:23.547Z,4.10
2019-05-23T13:27:52.390Z,4.47
2019-05-23T13:30:20.994Z,4.10
2019-05-23T13:32:50.016Z,3.90
2019-05-23T13:35:18.910Z,4.40
2019-05-23T13:37:53.682Z,4.40
2019-05-23T13:40:18.214Z,4.33
2019-05-23T13:42:47.079Z,4.00
2019-05-23T13:45:16.183Z,4.83
2019-05-23T13:47:45.408Z,4.83
2019-05-23T13:50:14.976Z,4.05
2019-05-23T13:52:43.964Z,4.60
2019-05-23T13:55:14.339Z,5.20
2019-05-23T13:57:43.332Z,5.17
2019-05-23T14:00:15.307Z,4.87
2019-05-23T14:02:44.614Z,4.80
2019-05-23T14:05:18.744Z,2.92
2019-05-23T14:07:45.377Z,3.40
2019-05-23T14:10:14.397Z,5.17
2019-05-23T14:12:43.627Z,5.47
2019-05-23T14:15:14.203Z,5.03
2019-05-23T14:17:46.489Z,5.35
2019-05-23T14:20:16.202Z,5.62
2019-05-23T14:22:47.790Z,4.72
2019-05-23T14:25:17.764Z,6.67
2019-05-23T14:27:48.495Z,5.28
2019-05-23T14:30:31.814Z,5.95
2019-05-23T14:33:20.457Z,3.72
2019-05-23T14:35:51.119Z,3.65
2019-05-23T14:38:30.256Z,5.17
2019-05-23T14:40:50.022Z,4.83
2019-05-23T14:43:28.923Z,4.90
2019-05-23T14:46:02.074Z,4.47
2019-05-23T14:48:48.431Z,3.58
2019-05-23T14:51:29.120Z,3.35
2019-05-23T14:53:59.461Z,4.65
2019-05-23T14:56:32.927Z,4.72
2019-05-23T14:59:01.651Z,4.33
2019-05-23T15:01:31.934Z,3.75
2019-05-23T15:04:02.022Z,3.20
2019-05-23T15:06:31.020Z,4.03
2019-05-23T15:08:59.767Z,4.85
2019-05-23T15:11:29.047Z,3.77
2019-05-23T15:13:57.677Z,4.20
2019-05-23T15:16:26.967Z,3.80
2019-05-23T15:18:55.763Z,4.87
2019-05-23T15:21:24.324Z,4.87
2019-05-23T15:23:52.932Z,5.30
2019-05-23T15:26:23.729Z,3.92
2019-05-23T15:28:51.815Z,4.37
2019-05-23T15:31:20.670Z,4.05
2019-05-23T15:33:49.178Z,3.90
2019-05-23T15:36:18.038Z,4.08
2019-05-23T15:38:46.763Z,4.47
2019-05-23T15:41:15.646Z,3.80
2019-05-23T15:43:44.527Z,3.90
2019-05-23T15:46:13.106Z,4.15
2019-05-23T15:48:42.018Z,5.12
2019-05-23T15:51:12.263Z,3.77
2019-05-23T15:53:42.438Z,3.83
2019-05-23T15:56:26.885Z,3.75
2019-05-23T15:58:57.093Z,3.70
2019-05-23T16:01:28.042Z,4.03
2019-05-23T16:04:01.211Z,4.53
2019-05-23T16:06:30.659Z,3.45
2019-05-23T16:08:59.590Z,4.95
2019-05-23T16:11:28.813Z,3.92
2019-05-23T16:13:57.669Z,8.13
2019-05-23T16:16:27.943Z,5.53
2019-05-23T16:18:56.560Z,4.83
2019-05-23T16:21:26.601Z,5.92
2019-05-23T16:23:55.145Z,6.12
2019-05-23T16:26:23.678Z,5.72
2019-05-23T16:28:52.582Z,3.87
2019-05-23T16:31:21.271Z,3.50
2019-05-23T16:33:49.857Z,4.10
2019-05-23T16:36:18.830Z,5.60
2019-05-23T16:38:47.502Z,5.75
2019-05-23T16:41:16.458Z,4.83
2019-05-23T16:43:45.370Z,4.70
2019-05-23T16:46:13.935Z,4.22
2019-05-23T16:48:42.535Z,5.72
2019-05-23T16:51:11.151Z,6.20
2019-05-23T16:53:40.344Z,4.62
2019-05-23T16:56:10.792Z,4.50
2019-05-23T16:58:57.270Z,5.97
2019-05-23T17:01:56.115Z,7.12
2019-05-23T17:04:27.335Z,5.62
2019-05-23T17:06:57.707Z,4.22
2019-05-23T17:09:39.968Z,3.92
2019-05-23T17:12:25.009Z,3.80
2019-05-23T17:14:58.097Z,3.72
2019-05-23T17:17:57.140Z,4.40
2019-05-23T17:20:19.642Z,4.90
2019-05-23T17:22:48.235Z,4.47
2019-05-23T17:25:33.938Z,4.95
2019-05-23T17:28:18.529Z,4.65
2019-05-23T17:30:51.944Z,4.80
2019-05-23T17:33:21.746Z,6.80
2019-05-23T17:35:50.356Z,6.05
2019-05-23T17:38:19.171Z,4.40
2019-05-23T17:40:47.709Z,4.80
2019-05-23T17:43:16.346Z,4.28
2019-05-23T17:45:44.984Z,4.95
2019-05-23T17:48:13.618Z,5.83
2019-05-23T17:50:42.272Z,6.00
2019-05-23T17:53:10.883Z,4.90
2019-05-23T17:55:39.556Z,4.90
2019-05-23T17:58:08.159Z,4.37
2019-05-23T18:00:41.846Z,6.53
2019-05-23T18:03:11.520Z,5.25
2019-05-23T18:05:40.499Z,5.42
2019-05-23T18:08:10.159Z,4.05
2019-05-23T18:10:45.225Z,4.83
2019-05-23T18:13:11.087Z,4.90
2019-05-23T18:15:40.586Z,5.30
2019-05-23T18:18:10.685Z,4.83
2019-05-23T18:20:39.955Z,5.40
2019-05-23T18:23:10.477Z,4.58
2019-05-23T18:25:40.057Z,5.50
2019-05-23T18:28:09.456Z,7.03
2019-05-23T18:30:55.995Z,4.17
2019-05-23T18:33:25.494Z,4.20
2019-05-23T18:35:55.924Z,4.40
2019-05-23T18:38:25.343Z,6.05
2019-05-23T18:41:04.073Z,5.30
2019-05-23T18:43:27.808Z,4.10
2019-05-23T18:45:58.058Z,4.22
2019-05-23T18:48:27.444Z,4.35
2019-05-23T18:50:56.486Z,6.05
2019-05-23T18:53:25.010Z,7.10
2019-05-23T18:55:53.894Z,7.25
2019-05-23T18:58:22.434Z,5.42
2019-05-23T19:00:54.526Z,5.20
2019-05-23T19:03:23.626Z,4.40
2019-05-23T19:05:52.863Z,5.00
2019-05-23T19:08:22.143Z,5.47
2019-05-23T19:10:50.743Z,6.50
2019-05-23T19:13:19.550Z,4.60
2019-05-23T19:15:48.791Z,5.25
2019-05-23T19:18:17.545Z,6.17
2019-05-23T19:20:48.376Z,5.10
2019-05-23T19:23:16.991Z,5.28
2019-05-23T19:25:46.314Z,6.67
2019-05-23T19:28:15.586Z,4.17
2019-05-23T19:30:45.397Z,4.20
2019-05-23T19:33:14.210Z,4.30
2019-05-23T19:35:46.811Z,5.17
2019-05-23T19:38:13.733Z,4.75
2019-05-23T19:40:42.680Z,5.72
2019-05-23T19:43:13.234Z,6.33
2019-05-23T19:45:41.836Z,6.10
2019-05-23T19:48:10.448Z,4.50
2019-05-23T19:50:39.854Z,4.90
2019-05-23T19:53:08.476Z,6.30
2019-05-23T19:55:40.432Z,5.85
2019-05-23T19:58:09.748Z,6.17
2019-05-23T20:00:40.098Z,6.15
2019-05-23T20:03:09.803Z,6.20
2019-05-23T20:05:40.415Z,6.30
2019-05-23T20:08:10.572Z,6.40
2019-05-23T20:10:39.818Z,6.53
2019-05-23T20:13:08.420Z,4.90
2019-05-23T20:15:38.542Z,5.40
2019-05-23T20:18:08.643Z,6.97
2019-05-23T20:20:39.122Z,6.50
2019-05-23T20:23:09.403Z,6.80
2019-05-23T20:25:38.772Z,6.08
2019-05-23T20:28:08.279Z,6.03
2019-05-23T20:30:45.830Z,7.20
2019-05-23T20:33:15.449Z,11.48
2019-05-23T20:35:45.004Z,11.30
2019-05-23T20:38:13.851Z,11.88
2019-05-23T20:40:42.466Z,9.05
2019-05-23T20:43:11.543Z,10.48
2019-05-23T20:45:41.232Z,7.92
2019-05-23T20:48:11.035Z,6.65
2019-05-23T20:50:40.584Z,7.08
2019-05-23T20:53:10.142Z,6.83
2019-05-23T20:55:38.780Z,7.12
2019-05-23T20:58:08.481Z,6.67
2019-05-23T21:00:39.023Z,5.40
2019-05-23T21:03:07.635Z,6.50
2019-05-23T21:05:36.814Z,5.37
2019-05-23T21:08:05.445Z,4.53
2019-05-23T21:10:43.906Z,5.17
2019-05-23T21:13:12.890Z,5.87
2019-05-23T21:15:41.447Z,6.00
2019-05-23T21:18:10.053Z,5.95
2019-05-23T21:20:38.616Z,5.58
2019-05-23T21:23:11.864Z,3.72
2019-05-23T21:25:42.381Z,4.55
2019-05-23T21:28:11.088Z,5.03
2019-05-23T21:30:39.979Z,5.45
2019-05-23T21:33:08.877Z,5.47
2019-05-23T21:35:37.735Z,5.10
2019-05-23T21:38:06.493Z,5.30
2019-05-23T21:40:38.076Z,3.90
2019-05-23T21:43:06.706Z,5.17
2019-05-23T21:45:35.311Z,5.97
2019-05-23T21:48:04.372Z,4.83
2019-05-23T21:50:33.194Z,5.85
2019-05-23T21:53:02.332Z,5.70
2019-05-23T21:55:42.366Z,5.20
2019-05-23T21:58:13.964Z,5.65
2019-05-23T22:00:58.390Z,5.70
2019-05-23T22:03:28.939Z,5.10
2019-05-23T22:05:57.637Z,5.70
2019-05-23T22:08:27.552Z,4.97
2019-05-23T22:10:56.184Z,5.37
2019-05-23T22:13:25.004Z,4.47
2019-05-23T22:15:55.278Z,5.53
2019-05-23T22:18:24.064Z,5.17
2019-05-23T22:20:52.665Z,5.20
2019-05-23T22:23:21.389Z,5.30
2019-05-23T22:25:49.985Z,5.80
2019-05-23T22:28:19.080Z,4.92
2019-05-23T22:30:47.693Z,6.70
2019-05-23T22:33:18.258Z,5.17
2019-05-23T22:35:46.902Z,5.95
2019-05-23T22:38:15.451Z,5.33
2019-05-23T22:40:44.107Z,5.67
2019-05-23T22:43:20.613Z,5.75
2019-05-23T22:45:43.120Z,5.28
2019-05-23T22:48:11.729Z,6.17
2019-05-23T22:50:40.333Z,6.10
2019-05-23T22:53:09.062Z,5.30
2019-05-23T22:55:37.861Z,5.17
2019-05-23T22:58:06.953Z,5.25
2019-05-23T23:00:40.083Z,5.87
2019-05-23T23:03:09.156Z,5.50
2019-05-23T23:05:37.632Z,5.83
2019-05-23T23:08:06.473Z,5.75
2019-05-23T23:10:35.086Z,5.35
2019-05-23T23:13:04.127Z,5.70
2019-05-23T23:15:33.627Z,5.90
2019-05-23T23:18:02.089Z,5.15
2019-05-23T23:20:30.702Z,5.80
2019-05-23T23:22:59.373Z,5.53
2019-05-23T23:25:28.755Z,5.25
2019-05-23T23:27:57.358Z,6.08
2019-05-23T23:30:33.636Z,5.12
2019-05-23T23:33:02.254Z,5.00
2019-05-23T23:35:33.984Z,5.37
2019-05-23T23:38:02.536Z,5.40
2019-05-23T23:40:31.134Z,5.67
2019-05-23T23:42:59.783Z,5.33
2019-05-23T23:45:47.434Z,4.90
2019-05-23T23:48:34.011Z,5.72
2019-05-23T23:51:20.554Z,4.67
2019-05-23T23:54:07.172Z,4.25
2019-05-23T23:56:54.482Z,4.67
2019-05-23T23:59:22.261Z,5.00
